createdAt,value
2017-08-17T00:00:14.051Z,17.75
2017-08-17T00:02:43.523Z,17.77
2017-08-17T00:05:13.421Z,17.75
2017-08-17T00:07:43.754Z,17.77
2017-08-17T00:10:13.149Z,17.80
2017-08-17T00:12:43.874Z,17.76
2017-08-17T00:15:13.879Z,18.00
2017-08-17T00:17:44.202Z,18.11
2017-08-17T00:20:13.803Z,18.04
2017-08-17T00:22:43.856Z,17.62
2017-08-17T00:25:13.679Z,17.25
2017-08-17T00:27:44.735Z,17.21
2017-08-17T00:30:14.162Z,17.41
2017-08-17T00:32:44.218Z,17.31
2017-08-17T00:35:13.887Z,17.35
2017-08-17T00:37:44.091Z,17.44
2017-08-17T00:40:13.411Z,17.10
2017-08-17T00:42:44.107Z,17.25
2017-08-17T00:45:13.655Z,17.31
2017-08-17T00:47:44.072Z,17.17
2017-08-17T00:50:13.824Z,17.18
2017-08-17T00:52:44.347Z,16.77
2017-08-17T00:55:13.835Z,17.43
2017-08-17T00:57:44.350Z,17.35
2017-08-17T01:00:13.672Z,17.46
2017-08-17T01:02:44.577Z,17.09
2017-08-17T01:05:14.884Z,17.15
2017-08-17T01:07:44.318Z,17.00
2017-08-17T01:10:13.704Z,16.78
2017-08-17T01:12:52.261Z,17.05
2017-08-17T01:15:21.736Z,16.78
2017-08-17T01:17:51.238Z,17.16
2017-08-17T01:20:21.344Z,17.21
2017-08-17T01:22:50.996Z,17.26
2017-08-17T01:25:20.616Z,17.26
2017-08-17T01:27:50.597Z,17.08
2017-08-17T01:30:20.306Z,16.88
2017-08-17T01:32:49.710Z,17.02
2017-08-17T01:35:19.635Z,16.70
2017-08-17T01:37:49.208Z,16.66
2017-08-17T01:40:18.787Z,16.74
2017-08-17T01:42:48.583Z,16.78
2017-08-17T01:45:18.390Z,17.05
2017-08-17T01:47:48.118Z,16.66
2017-08-17T01:50:18.100Z,16.76
2017-08-17T01:52:47.662Z,16.70
2017-08-17T01:55:17.478Z,16.67
2017-08-17T01:57:46.999Z,16.63
2017-08-17T02:00:16.892Z,16.64
2017-08-17T02:02:47.163Z,16.55
2017-08-17T02:05:16.906Z,16.54
2017-08-17T02:07:46.486Z,16.62
2017-08-17T02:10:16.335Z,16.79
2017-08-17T02:12:46.565Z,16.67
2017-08-17T02:15:16.067Z,16.79
2017-08-17T02:17:45.458Z,17.00
2017-08-17T02:20:15.301Z,17.04
2017-08-17T02:22:45.944Z,16.84
2017-08-17T02:25:15.622Z,16.66
2017-08-17T02:27:45.063Z,16.80
2017-08-17T02:30:14.863Z,16.84
2017-08-17T02:32:44.584Z,17.06
2017-08-17T02:35:14.068Z,16.94
2017-08-17T02:37:44.106Z,16.49
2017-08-17T02:40:14.100Z,16.71
2017-08-17T02:42:43.987Z,16.86
2017-08-17T02:45:13.982Z,16.63
2017-08-17T02:47:44.150Z,16.86
2017-08-17T02:50:14.033Z,16.52
2017-08-17T02:52:44.734Z,16.55
2017-08-17T02:55:14.823Z,16.74
2017-08-17T02:57:44.318Z,16.85
2017-08-17T03:00:14.731Z,16.47
2017-08-17T03:02:44.482Z,16.62
2017-08-17T03:05:14.071Z,16.14
2017-08-17T03:07:44.102Z,16.31
2017-08-17T03:10:13.903Z,15.97
2017-08-17T03:12:43.954Z,15.88
2017-08-17T03:15:13.513Z,16.21
2017-08-17T03:17:46.483Z,16.06
2017-08-17T03:20:16.710Z,16.15
2017-08-17T03:22:46.022Z,16.01
2017-08-17T03:25:15.301Z,16.08
2017-08-17T03:27:45.199Z,16.03
2017-08-17T03:30:14.820Z,15.83
2017-08-17T03:32:44.275Z,15.93
2017-08-17T03:35:14.234Z,15.91
2017-08-17T03:37:44.107Z,15.91
2017-08-17T03:40:13.751Z,16.06
2017-08-17T03:42:44.538Z,16.24
2017-08-17T03:45:14.238Z,15.91
2017-08-17T03:47:44.115Z,16.09
2017-08-17T03:50:13.668Z,16.17
2017-08-17T03:52:45.312Z,16.03
2017-08-17T03:55:15.187Z,16.05
2017-08-17T03:57:44.338Z,15.85
2017-08-17T04:00:14.021Z,16.10
2017-08-17T04:02:44.779Z,16.23
2017-08-17T04:05:14.451Z,15.98
2017-08-17T04:07:44.411Z,15.84
2017-08-17T04:10:18.104Z,15.95
2017-08-17T04:12:47.794Z,15.92
2017-08-17T04:15:17.611Z,15.65
2017-08-17T04:17:46.763Z,15.89
2017-08-17T04:20:16.118Z,15.90
2017-08-17T04:22:48.058Z,15.77
2017-08-17T04:25:17.355Z,15.99
2017-08-17T04:27:46.553Z,15.84
2017-08-17T04:30:15.865Z,15.99
2017-08-17T04:32:45.636Z,16.14
2017-08-17T04:35:15.063Z,16.18
2017-08-17T04:37:44.566Z,16.29
2017-08-17T04:40:14.486Z,16.14
2017-08-17T04:42:44.763Z,15.89
2017-08-17T04:45:13.951Z,16.16
2017-08-17T04:47:43.875Z,16.33
2017-08-17T04:50:13.234Z,16.05
2017-08-17T04:52:46.063Z,16.25
2017-08-17T04:55:16.011Z,16.23
2017-08-17T04:58:01.555Z,16.40
2017-08-17T05:00:31.454Z,16.28
2017-08-17T05:03:00.650Z,16.44
2017-08-17T05:05:30.026Z,16.48
2017-08-17T05:07:59.722Z,16.53
2017-08-17T05:10:28.950Z,16.68
2017-08-17T05:12:58.299Z,16.80
2017-08-17T05:15:28.177Z,16.74
2017-08-17T05:17:57.478Z,16.79
2017-08-17T05:20:26.971Z,16.97
2017-08-17T05:22:56.694Z,16.92
2017-08-17T05:25:25.906Z,16.78
2017-08-17T05:27:55.184Z,16.77
2017-08-17T05:30:25.200Z,16.85
2017-08-17T05:32:54.459Z,16.98
2017-08-17T05:35:24.072Z,16.97
2017-08-17T05:37:53.798Z,17.10
2017-08-17T05:40:23.103Z,16.99
2017-08-17T05:42:52.373Z,16.97
2017-08-17T05:45:22.275Z,16.92
2017-08-17T05:47:51.558Z,17.01
2017-08-17T05:50:20.844Z,17.05
2017-08-17T05:52:50.398Z,17.04
2017-08-17T05:55:19.592Z,17.01
2017-08-17T05:57:48.811Z,17.00
2017-08-17T06:00:18.299Z,17.00
2017-08-17T06:02:47.559Z,17.18
2017-08-17T06:05:16.715Z,17.22
2017-08-17T06:07:46.320Z,17.34
2017-08-17T06:10:15.988Z,17.34
2017-08-17T06:12:45.182Z,17.34
2017-08-17T06:15:14.743Z,17.47
2017-08-17T06:17:44.286Z,17.72
2017-08-17T06:20:13.616Z,17.86
2017-08-17T06:22:45.916Z,17.93
2017-08-17T06:25:15.216Z,17.94
2017-08-17T06:27:44.511Z,17.99
2017-08-17T06:30:14.304Z,18.06
2017-08-17T06:32:44.214Z,18.17
2017-08-17T06:35:13.357Z,18.21
2017-08-17T06:37:44.015Z,18.26
2017-08-17T06:40:13.211Z,18.38
2017-08-17T06:42:46.611Z,18.37
2017-08-17T06:45:17.083Z,18.43
2017-08-17T06:47:46.243Z,18.55
2017-08-17T06:50:15.415Z,18.65
2017-08-17T06:52:45.099Z,18.68
2017-08-17T06:55:14.658Z,18.72
2017-08-17T06:57:44.539Z,18.80
2017-08-17T07:00:14.984Z,18.92
2017-08-17T07:02:45.065Z,19.08
2017-08-17T07:05:14.284Z,19.57
2017-08-17T07:07:44.945Z,19.91
2017-08-17T07:10:14.399Z,19.78
2017-08-17T07:12:44.172Z,19.92
2017-08-17T07:15:14.039Z,20.11
2017-08-17T07:17:44.223Z,20.21
2017-08-17T07:20:13.724Z,20.66
2017-08-17T07:22:44.771Z,21.57
2017-08-17T07:25:14.355Z,21.67
2017-08-17T07:27:50.288Z,21.45
2017-08-17T07:30:19.680Z,21.59
2017-08-17T07:32:48.930Z,21.65
2017-08-17T07:35:18.940Z,21.79
2017-08-17T07:37:48.307Z,22.28
2017-08-17T07:40:17.523Z,22.76
2017-08-17T07:42:47.301Z,23.02
2017-08-17T07:45:17.117Z,23.11
2017-08-17T07:47:47.156Z,23.41
2017-08-17T07:50:16.699Z,23.73
2017-08-17T07:52:46.228Z,23.83
2017-08-17T07:55:17.732Z,24.04
2017-08-17T07:57:47.619Z,23.92
2017-08-17T08:00:17.055Z,23.98
2017-08-17T08:02:59.275Z,24.42
2017-08-17T08:05:29.800Z,24.50
2017-08-17T08:07:59.722Z,24.89
2017-08-17T08:10:29.556Z,25.20
2017-08-17T08:13:02.094Z,25.50
2017-08-17T08:15:31.576Z,24.97
2017-08-17T08:18:01.371Z,25.17
2017-08-17T08:20:32.177Z,25.62
2017-08-17T08:23:01.898Z,25.40
2017-08-17T08:28:05.433Z,25.61
2017-08-17T08:30:34.981Z,25.92
2017-08-17T08:33:04.358Z,26.20
2017-08-17T08:35:33.574Z,26.17
2017-08-17T08:38:03.105Z,26.11
2017-08-17T08:40:32.330Z,26.24
2017-08-17T08:43:01.759Z,25.93
2017-08-17T08:45:31.271Z,26.20
2017-08-17T08:48:00.855Z,26.54
2017-08-17T08:50:30.167Z,26.82
2017-08-17T08:52:59.794Z,26.54
2017-08-17T08:55:29.107Z,26.62
2017-08-17T08:57:58.923Z,26.55
2017-08-17T09:00:28.660Z,26.98
2017-08-17T09:02:58.307Z,27.51
2017-08-17T09:05:27.523Z,26.89
2017-08-17T09:07:57.024Z,27.07
2017-08-17T09:10:26.179Z,27.47
2017-08-17T09:12:55.403Z,27.52
2017-08-17T09:15:25.271Z,27.87
2017-08-17T09:17:54.447Z,27.56
2017-08-17T09:20:23.645Z,27.48
2017-08-17T09:22:53.144Z,27.78
2017-08-17T09:25:22.378Z,27.94
2017-08-17T09:27:51.820Z,27.81
2017-08-17T09:30:21.344Z,27.75
2017-08-17T09:32:50.682Z,27.82
2017-08-17T09:35:19.883Z,28.07
2017-08-17T09:37:49.761Z,28.06
2017-08-17T09:40:18.999Z,27.72
2017-08-17T09:42:48.457Z,27.70
2017-08-17T09:45:17.996Z,27.44
2017-08-17T09:47:47.195Z,27.21
2017-08-17T09:50:16.351Z,27.56
2017-08-17T09:52:46.067Z,27.47
2017-08-17T09:55:15.299Z,26.78
2017-08-17T09:57:44.651Z,26.95
2017-08-17T10:00:14.139Z,26.37
2017-08-17T10:02:44.332Z,25.93
2017-08-17T10:05:13.500Z,25.98
2017-08-17T10:07:44.243Z,26.09
2017-08-17T10:10:13.448Z,26.78
2017-08-17T10:12:45.727Z,27.36
2017-08-17T10:15:18.709Z,27.97
2017-08-17T10:17:47.858Z,28.15
2017-08-17T10:20:17.632Z,27.90
2017-08-17T10:22:48.302Z,27.35
2017-08-17T10:25:17.494Z,27.39
2017-08-17T10:27:46.681Z,27.91
2017-08-17T10:30:16.191Z,28.29
2017-08-17T10:32:45.409Z,28.69
2017-08-17T10:35:15.694Z,29.18
2017-08-17T10:37:45.211Z,29.07
2017-08-17T10:40:14.675Z,28.76
2017-08-17T10:42:45.259Z,29.12
2017-08-17T10:45:14.692Z,28.99
2017-08-17T10:47:45.015Z,28.17
2017-08-17T10:50:14.482Z,28.08
2017-08-17T10:52:44.590Z,28.40
2017-08-17T10:55:13.919Z,29.17
2017-08-17T10:57:44.490Z,29.16
2017-08-17T11:00:14.068Z,28.97
2017-08-17T11:02:44.738Z,29.42
2017-08-17T11:05:14.000Z,29.42
2017-08-17T11:07:44.818Z,29.07
2017-08-17T11:10:14.138Z,28.86
2017-08-17T11:12:44.763Z,28.16
2017-08-17T11:15:14.370Z,28.03
2017-08-17T11:17:44.557Z,27.83
2017-08-17T11:20:14.323Z,28.23
2017-08-17T11:22:45.131Z,27.69
2017-08-17T11:25:14.423Z,27.99
2017-08-17T11:27:44.760Z,27.70
2017-08-17T11:30:14.295Z,27.90
2017-08-17T11:32:44.528Z,27.76
2017-08-17T11:35:13.787Z,27.86
2017-08-17T11:37:44.367Z,28.31
2017-08-17T11:40:13.703Z,28.21
2017-08-17T11:42:44.428Z,28.50
2017-08-17T11:45:13.983Z,28.80
2017-08-17T11:47:43.901Z,28.47
2017-08-17T11:50:13.138Z,27.87
2017-08-17T11:52:45.382Z,28.45
2017-08-17T11:55:14.651Z,28.84
2017-08-17T11:57:44.523Z,29.06
2017-08-17T12:00:14.053Z,29.06
2017-08-17T12:02:43.877Z,29.07
2017-08-17T12:05:13.271Z,29.38
2017-08-17T12:07:44.886Z,29.07
2017-08-17T12:10:14.435Z,29.01
2017-08-17T12:12:50.910Z,29.37
2017-08-17T12:15:20.498Z,29.13
2017-08-17T12:17:49.771Z,29.13
2017-08-17T12:20:18.975Z,29.38
2017-08-17T12:22:49.698Z,29.12
2017-08-17T12:25:18.886Z,28.94
2017-08-17T12:27:48.402Z,29.08
2017-08-17T12:30:19.920Z,29.07
2017-08-17T12:32:50.659Z,29.23
2017-08-17T12:35:19.863Z,28.99
2017-08-17T12:37:49.506Z,29.05
2017-08-17T12:40:18.708Z,28.90
2017-08-17T12:42:48.285Z,28.79
2017-08-17T12:45:17.857Z,28.61
2017-08-17T12:47:47.114Z,29.12
2017-08-17T12:50:16.294Z,29.17
2017-08-17T12:53:02.695Z,29.16
2017-08-17T12:55:32.006Z,28.48
2017-08-17T12:58:01.206Z,28.75
2017-08-17T13:00:30.866Z,28.83
2017-08-17T13:03:00.054Z,28.41
2017-08-17T13:05:29.594Z,28.23
2017-08-17T13:07:59.088Z,28.32
2017-08-17T13:10:28.291Z,28.13
2017-08-17T13:12:57.453Z,28.23
2017-08-17T13:15:26.954Z,28.19
2017-08-17T13:17:56.127Z,28.18
2017-08-17T13:20:25.332Z,27.96
2017-08-17T13:22:54.834Z,28.25
2017-08-17T13:25:24.203Z,28.50
2017-08-17T13:27:53.838Z,28.47
2017-08-17T13:30:23.340Z,28.50
2017-08-17T13:32:52.567Z,28.30
2017-08-17T13:35:21.819Z,27.86
2017-08-17T13:37:51.455Z,27.62
2017-08-17T13:40:20.879Z,27.57
2017-08-17T13:42:50.102Z,27.67
2017-08-17T13:45:19.782Z,27.80
2017-08-17T13:47:48.986Z,27.93
2017-08-17T13:50:18.289Z,27.76
2017-08-17T13:52:47.842Z,27.49
2017-08-17T13:55:17.076Z,27.68
2017-08-17T13:57:46.426Z,27.26
2017-08-17T14:00:15.937Z,27.15
2017-08-17T14:02:46.366Z,27.33
2017-08-17T14:11:58.110Z,27.70
2017-08-17T14:14:33.121Z,28.00
2017-08-17T14:17:06.281Z,27.92
2017-08-17T14:19:39.454Z,27.92
2017-08-17T14:22:09.282Z,27.74
2017-08-17T14:24:40.166Z,28.00
2017-08-17T14:27:09.377Z,27.83
2017-08-17T14:29:39.429Z,27.67
2017-08-17T14:32:09.444Z,27.65
2017-08-17T14:34:41.841Z,27.57
2017-08-17T14:37:11.017Z,27.70
2017-08-17T14:39:43.032Z,27.75
2017-08-17T14:42:12.406Z,27.51
2017-08-17T14:44:44.123Z,27.24
2017-08-17T14:47:15.855Z,27.15
2017-08-17T14:49:45.109Z,27.19
2017-08-17T14:52:14.664Z,27.28
2017-08-17T14:54:45.997Z,27.50
2017-08-17T14:57:15.185Z,27.37
2017-08-17T14:59:44.525Z,27.16
2017-08-17T15:02:14.396Z,27.22
2017-08-17T15:04:44.562Z,27.35
2017-08-17T15:07:13.686Z,27.14
2017-08-17T15:09:43.596Z,27.37
2017-08-17T15:12:12.827Z,27.15
2017-08-17T15:14:44.374Z,27.22
2017-08-17T15:17:13.820Z,27.37
2017-08-17T15:19:44.480Z,27.06
2017-08-17T15:22:14.100Z,27.09
2017-08-17T15:24:44.801Z,27.37
2017-08-17T15:27:16.838Z,27.35
2017-08-17T15:29:46.040Z,27.33
2017-08-17T15:32:15.862Z,27.06
2017-08-17T15:34:45.769Z,27.05
2017-08-17T15:37:14.919Z,26.95
2017-08-17T15:39:45.080Z,27.04
2017-08-17T15:42:16.074Z,27.06
2017-08-17T15:44:45.285Z,27.03
2017-08-17T15:47:15.989Z,26.92
2017-08-17T15:49:45.705Z,26.81
2017-08-17T15:52:16.978Z,26.72
2017-08-17T15:54:47.115Z,26.64
2017-08-17T15:57:16.348Z,26.63
2017-08-17T15:59:45.790Z,26.64
2017-08-17T16:02:15.512Z,26.56
2017-08-17T16:04:47.568Z,26.45
2017-08-17T16:07:17.156Z,26.38
2017-08-17T16:09:46.331Z,26.38
2017-08-17T16:12:15.733Z,26.48
2017-08-17T16:14:46.143Z,26.54
2017-08-17T16:17:15.443Z,26.70
2017-08-17T16:19:46.199Z,26.89
2017-08-17T16:22:23.492Z,26.87
2017-08-17T16:24:53.812Z,26.80
2017-08-17T16:28:48.449Z,26.59
2017-08-17T16:31:20.674Z,26.31
2017-08-17T16:33:53.596Z,26.29
2017-08-17T16:36:23.096Z,26.26
2017-08-17T16:38:52.328Z,26.26
2017-08-17T16:41:21.762Z,26.08
2017-08-17T16:43:51.010Z,26.09
2017-08-17T16:46:20.151Z,25.85
2017-08-17T16:48:49.953Z,25.73
2017-08-17T16:51:19.255Z,25.76
2017-08-17T16:53:48.474Z,25.85
2017-08-17T16:56:17.946Z,25.85
2017-08-17T16:58:47.139Z,25.93
2017-08-17T17:01:16.479Z,25.86
2017-08-17T17:03:46.147Z,25.75
2017-08-17T17:06:15.895Z,25.88
2017-08-17T17:08:46.334Z,25.99
2017-08-17T17:11:16.143Z,25.80
2017-08-17T17:13:45.520Z,25.76
2017-08-17T17:16:14.899Z,25.57
2017-08-17T17:18:46.038Z,25.56
2017-08-17T17:21:15.410Z,25.47
2017-08-17T17:23:44.669Z,25.61
2017-08-17T17:26:14.170Z,25.35
2017-08-17T17:28:45.282Z,25.40
2017-08-17T17:31:14.458Z,25.26
2017-08-17T17:33:44.786Z,25.17
2017-08-17T17:36:14.063Z,25.31
2017-08-17T17:38:44.687Z,25.23
2017-08-17T17:41:14.364Z,25.11
2017-08-17T17:43:45.643Z,25.05
2017-08-17T17:46:14.829Z,24.94
2017-08-17T17:48:44.866Z,24.94
2017-08-17T17:51:14.018Z,25.06
2017-08-17T17:53:44.410Z,24.87
2017-08-17T17:56:13.935Z,24.91
2017-08-17T17:58:44.148Z,25.09
2017-08-17T18:01:13.355Z,25.02
2017-08-17T18:03:45.859Z,24.94
2017-08-17T18:06:15.163Z,24.99
2017-08-17T18:08:45.110Z,24.81
2017-08-17T18:11:14.560Z,24.81
2017-08-17T18:13:45.604Z,24.60
2017-08-17T18:16:17.280Z,24.63
2017-08-17T18:18:46.851Z,24.61
2017-08-17T18:21:16.064Z,24.56
2017-08-17T18:23:45.363Z,24.56
2017-08-17T18:26:14.858Z,24.46
2017-08-17T18:28:44.135Z,24.39
2017-08-17T18:31:13.385Z,24.40
2017-08-17T18:33:44.958Z,24.34
2017-08-17T18:36:14.223Z,24.40
2017-08-17T18:38:45.815Z,24.30
2017-08-17T18:41:15.418Z,24.27
2017-08-17T18:43:44.636Z,24.23
2017-08-17T18:46:13.843Z,24.16
2017-08-17T18:48:45.195Z,24.21
2017-08-17T18:51:14.367Z,24.16
2017-08-17T18:53:44.095Z,24.08
2017-08-17T18:56:13.587Z,24.01
2017-08-17T18:58:44.736Z,24.01
2017-08-17T19:01:13.943Z,23.93
2017-08-17T19:03:44.597Z,23.92
2017-08-17T19:06:14.145Z,23.88
2017-08-17T19:08:44.486Z,23.88
2017-08-17T19:11:13.916Z,23.83
2017-08-17T19:13:44.647Z,23.72
2017-08-17T19:16:13.852Z,23.66
2017-08-17T19:18:45.322Z,23.68
2017-08-17T19:21:14.604Z,23.64
2017-08-17T19:23:45.512Z,23.64
2017-08-17T19:26:15.034Z,23.61
2017-08-17T19:28:45.077Z,23.59
2017-08-17T19:31:14.418Z,23.57
2017-08-17T19:33:44.844Z,23.58
2017-08-17T19:36:14.067Z,23.54
2017-08-17T19:38:45.237Z,23.54
2017-08-17T19:41:14.725Z,23.46
2017-08-17T19:43:44.407Z,23.42
2017-08-17T19:46:20.917Z,23.42
2017-08-17T19:48:50.601Z,23.37
2017-08-17T19:51:19.813Z,23.41
2017-08-17T19:53:49.071Z,23.44
2017-08-17T19:56:20.032Z,23.50
2017-08-17T19:58:49.433Z,23.44
2017-08-17T20:01:18.646Z,23.40
2017-08-17T20:03:48.136Z,23.32
2017-08-17T20:06:17.351Z,23.28
2017-08-17T20:08:46.549Z,23.30
2017-08-17T20:11:16.082Z,23.25
2017-08-17T20:13:45.314Z,23.26
2017-08-17T20:16:14.485Z,23.19
2017-08-17T20:18:45.022Z,23.12
2017-08-17T20:21:14.551Z,23.01
2017-08-17T20:23:45.322Z,22.73
2017-08-17T20:26:14.831Z,22.64
2017-08-17T20:28:45.404Z,22.40
2017-08-17T20:31:14.750Z,22.46
2017-08-17T20:33:45.699Z,22.52
2017-08-17T20:36:15.076Z,22.48
2017-08-17T20:38:45.639Z,22.78
2017-08-17T20:41:15.578Z,22.66
2017-08-17T20:43:45.170Z,22.56
2017-08-17T20:46:14.495Z,22.60
2017-08-17T20:48:45.336Z,22.60
2017-08-17T20:51:14.633Z,22.56
2017-08-17T20:53:44.866Z,22.54
2017-08-17T20:56:14.591Z,22.49
2017-08-17T21:02:04.658Z,22.45
2017-08-17T21:04:34.006Z,22.44
2017-08-17T21:07:03.414Z,22.44
2017-08-17T21:09:33.070Z,22.49
2017-08-17T21:12:02.364Z,22.45
2017-08-17T21:14:31.694Z,22.43
2017-08-17T21:17:01.303Z,22.46
2017-08-17T21:19:30.658Z,22.47
2017-08-17T21:21:59.867Z,22.23
2017-08-17T21:24:29.347Z,22.40
2017-08-17T21:26:58.568Z,22.23
2017-08-17T21:29:27.731Z,22.26
2017-08-17T21:31:59.381Z,22.03
2017-08-17T21:34:28.603Z,21.93
2017-08-17T21:36:57.882Z,21.86
2017-08-17T21:39:27.322Z,21.73
2017-08-17T21:41:56.605Z,21.71
2017-08-17T21:44:25.798Z,21.70
2017-08-17T21:46:55.425Z,21.68
2017-08-17T21:49:24.606Z,21.55
2017-08-17T21:51:54.007Z,21.44
2017-08-17T21:56:51.426Z,21.40
2017-08-17T21:59:20.834Z,21.33
2017-08-17T22:01:50.323Z,21.45
2017-08-17T22:04:19.755Z,21.70
2017-08-17T22:06:49.332Z,21.56
2017-08-17T22:09:19.141Z,21.64
2017-08-17T22:11:48.311Z,21.47
2017-08-17T22:14:17.486Z,21.56
2017-08-17T22:16:46.964Z,21.56
2017-08-17T22:19:16.204Z,21.46
2017-08-17T22:21:45.366Z,21.61
2017-08-17T22:24:14.956Z,21.62
2017-08-17T22:26:44.397Z,21.72
2017-08-17T22:29:13.831Z,21.64
2017-08-17T22:31:46.080Z,21.56
2017-08-17T22:34:15.270Z,21.76
2017-08-17T22:36:44.513Z,21.67
2017-08-17T22:39:13.950Z,21.76
2017-08-17T22:41:44.895Z,21.13
2017-08-17T22:44:14.087Z,21.05
2017-08-17T22:46:45.444Z,20.88
2017-08-17T22:49:14.748Z,20.82
2017-08-17T22:51:44.914Z,21.09
2017-08-17T22:54:14.390Z,21.06
2017-08-17T22:56:45.615Z,21.32
2017-08-17T22:59:14.779Z,21.41
2017-08-17T23:01:45.596Z,21.46
2017-08-17T23:04:15.519Z,21.47
2017-08-17T23:06:44.947Z,21.20
2017-08-17T23:09:14.075Z,20.72
2017-08-17T23:11:44.773Z,20.94
2017-08-17T23:14:13.952Z,20.59
2017-08-17T23:16:45.155Z,20.88
2017-08-17T23:19:20.418Z,20.99
2017-08-17T23:21:59.845Z,21.04
2017-08-17T23:24:45.358Z,21.09
2017-08-17T23:27:16.872Z,21.09
2017-08-17T23:29:46.346Z,20.95
2017-08-17T23:32:15.572Z,20.97
2017-08-17T23:34:46.146Z,20.92
2017-08-17T23:37:15.760Z,20.31
2017-08-17T23:39:46.448Z,20.09
2017-08-17T23:42:15.706Z,20.36
2017-08-17T23:44:45.362Z,20.30
2017-08-17T23:47:14.835Z,20.27
2017-08-17T23:49:45.424Z,20.04
2017-08-17T23:52:15.012Z,20.20
2017-08-17T23:54:49.087Z,20.09
2017-08-17T23:57:19.230Z,20.19
2017-08-17T23:59:48.778Z,19.81
